Time;durP1;ratioP1;P1;durP2;ratioP2;P2;SDS_P1;SDS_P2;PMS_P1;PMS_P2;Temp;Humidity;BMP_temperature;BMP_pressure;BME280_temperature;BME280_humidity;BME280_pressure;Samples;Min_cycle;Max_cycle;Signal;HPM_P1;HPM_P2
2023/11/24 00:01:51;;;;;;;;;;;;;;;;;;137527;1274;22271;-83
2023/11/24 00:04:53;;;;;;;;;;;;;;;;;;137445;1274;23287;-83
2023/11/24 00:07:56;;;;;;;;;;;;;;;;;;137493;1274;22943;-83
2023/11/24 00:10:58;;;;;;;;;;;;;;;;;;137503;1274;22648;-84
2023/11/24 00:14:01;;;;;;;;;;;;;;;;;;137462;1274;22301;-83
2023/11/24 00:17:04;;;;;;;;;;;;;;;;;;137411;1267;22896;-83
2023/11/24 00:20:07;;;;;;;;;;;;;;;;;;137481;1274;22296;-83
2023/11/24 00:23:10;;;;;;;;;;;;;;;;;;137487;1270;22345;-83
2023/11/24 00:26:12;;;;;;;;;;;;;;;;;;137498;1267;22491;-83
2023/11/24 00:29:15;;;;;;;;;;;;;;;;;;137448;1274;22333;-82
2023/11/24 00:32:19;;;;;;;;;;;;;;;;;;137484;1270;22944;-83
2023/11/24 00:35:22;;;;;;;;;;;;;;;;;;137486;1274;22746;-83
2023/11/24 00:38:24;;;;;;;;;;;;;;;;;;137500;1274;22749;-83
2023/11/24 00:41:27;;;;;;;;;;;;;;;;;;137473;1274;22780;-83
2023/11/24 00:44:30;;;;;;;;;;;;;;;;;;137446;1274;22377;-82
2023/11/24 00:47:32;;;;;;;;;;;;;;;;;;137456;1274;22589;-82
2023/11/24 00:50:35;;;;;;;;;;;;;;;;;;137373;1274;24218;-82
2023/11/24 00:53:37;;;;;;;;;;;;;;;;;;137412;1274;22656;-82
2023/11/24 00:56:40;;;;;;;;;;;;;;;;;;137452;1274;22562;-83
2023/11/24 00:59:43;;;;;;;;;;;;;;;;;;137424;1274;22582;-81
2023/11/24 01:02:46;;;;;;;;;;;;;;;;;;137452;1274;22565;-83
2023/11/24 01:05:49;;;;;;;;;;;;;;;;;;137394;1274;22512;-83
2023/11/24 01:08:52;;;;;;;;;;;;;;;;;;137513;1274;22272;-82
2023/11/24 01:11:54;;;;;;;;;;;;;;;;;;137329;1274;22604;-82
2023/11/24 01:14:57;;;;;;;;;;;;;;;;;;137538;1274;22333;-82
2023/11/24 01:18:00;;;;;;;;;;;;;;;;;;137437;1274;22551;-82
2023/11/24 01:21:03;;;;;;;;;;;;;;;;;;137415;1274;22552;-81
2023/11/24 01:24:06;;;;;;;;;;;;;;;;;;137647;1273;22535;-81
2023/11/24 01:27:08;;;;;;;;;;;;;;;;;;137511;1274;22503;-82
2023/11/24 01:30:11;;;;;;;;;;;;;;;;;;137497;1274;22273;-81
2023/11/24 01:33:13;;;;;;;;;;;;;;;;;;137515;1274;22886;-81
2023/11/24 01:36:16;;;;;;;;;;;;;;;;;;137483;1274;22645;-81
2023/11/24 01:39:18;;;;;;;;;;;;;;;;;;137453;1274;22515;-82
2023/11/24 01:42:21;;;;;;;;;;;;;;;;;;137550;1274;22417;-81
2023/11/24 01:45:23;;;;;;;;;;;;;;;;;;137502;1273;22516;-82
2023/11/24 01:48:26;;;;;;;;;;;;;;;;;;137552;1274;22351;-82
2023/11/24 01:51:28;;;;;;;;;;;;;;;;;;137392;1270;22682;-83
2023/11/24 01:54:36;;;;;;;;;;;;;;;;;;137336;1274;22527;-84
2023/11/24 01:57:39;;;;;;;;;;;;;;;;;;137511;1274;22344;-84
2023/11/24 02:00:42;;;;;;;;;;;;;;;;;;137489;1274;22761;-83
2023/11/24 02:03:44;;;;;;;;;;;;;;;;;;137453;1274;22287;-82
2023/11/24 02:06:47;;;;;;;;;;;;;;;;;;137504;1274;22292;-82
2023/11/24 02:09:49;;;;;;;;;;;;;;;;;;137520;1274;22390;-81
2023/11/24 02:12:52;;;;;;;;;;;;;;;;;;137497;1274;22407;-81
2023/11/24 02:15:54;;;;;;;;;;;;;;;;;;137489;1273;22283;-81
2023/11/24 02:18:57;;;;;;;;;;;;;;;;;;137418;1274;22541;-82
2023/11/24 02:21:59;;;;;;;;;;;;;;;;;;137470;1274;22633;-81
2023/11/24 02:25:02;;;;;;;;;;;;;;;;;;137495;1274;22415;-81
2023/11/24 02:28:04;;;;;;;;;;;;;;;;;;137436;1274;22508;-81
2023/11/24 02:31:07;;;;;;;;;;;;;;;;;;137414;1274;22515;-83
2023/11/24 02:34:10;;;;;;;;;;;;;;;;;;137370;1273;22583;-82
2023/11/24 02:37:12;;;;;;;;;;;;;;;;;;137471;1274;22493;-82
2023/11/24 02:40:15;;;;;;;;;;;;;;;;;;137544;1274;22314;-83
2023/11/24 02:43:17;;;;;;;;;;;;;;;;;;137479;1274;23050;-83
2023/11/24 02:46:20;;;;;;;;;;;;;;;;;;137479;1273;22554;-84
2023/11/24 02:49:26;;;;;;;;;;;;;;;;;;137384;1274;22514;-84
2023/11/24 02:52:28;;;;;;;;;;;;;;;;;;137466;1274;22550;-84
2023/11/24 02:55:31;;;;;;;;;;;;;;;;;;137382;1274;22556;-83
2023/11/24 02:58:33;;;;;;;;;;;;;;;;;;137523;1274;22485;-83
2023/11/24 03:01:35;;;;;;;;;;;;;;;;;;137463;1270;22506;-82
2023/11/24 03:04:38;;;;;;;;;;;;;;;;;;137547;1274;22836;-82
2023/11/24 03:07:41;;;;;;;;;;;;;;;;;;137396;1274;22557;-82
2023/11/24 03:10:44;;;;;;;;;;;;;;;;;;137441;1273;22539;-83
2023/11/24 03:13:46;;;;;;;;;;;;;;;;;;137453;1274;23081;-83
2023/11/24 03:16:51;;;;;;;;;;;;;;;;;;137475;1273;22530;-82
2023/11/24 03:19:53;;;;;;;;;;;;;;;;;;137484;1274;23036;-84
2023/11/24 03:22:56;;;;;;;;;;;;;;;;;;137491;1274;22581;-83
2023/11/24 03:26:02;;;;;;;;;;;;;;;;;;137437;1274;22849;-83
2023/11/24 03:29:05;;;;;;;;;;;;;;;;;;137441;1274;23089;-82
2023/11/24 03:32:07;;;;;;;;;;;;;;;;;;137448;1274;23152;-85
2023/11/24 03:35:10;;;;;;;;;;;;;;;;;;137446;1273;22996;-82
2023/11/24 03:38:12;;;;;;;;;;;;;;;;;;137555;1267;22322;-83
2023/11/24 03:41:16;;;;;;;;;;;;;;;;;;137524;1273;22587;-83
2023/11/24 03:44:19;;;;;;;;;;;;;;;;;;137477;1269;22522;-83
2023/11/24 03:47:21;;;;;;;;;;;;;;;;;;137517;1269;22293;-82
2023/11/24 03:50:24;;;;;;;;;;;;;;;;;;137514;1274;22423;-82
2023/11/24 03:53:26;;;;;;;;;;;;;;;;;;137486;1274;22540;-84
2023/11/24 03:56:31;;;;;;;;;;;;;;;;;;137381;1274;22583;-82
2023/11/24 03:59:33;;;;;;;;;;;;;;;;;;137374;1274;22891;-81
2023/11/24 04:02:36;;;;;;;;;;;;;;;;;;137503;1274;22539;-81
2023/11/24 04:05:38;;;;;;;;;;;;;;;;;;137412;1274;22482;-82
2023/11/24 04:08:41;;;;;;;;;;;;;;;;;;137390;1274;22559;-81
2023/11/24 04:11:43;;;;;;;;;;;;;;;;;;137561;1270;22534;-81
2023/11/24 04:14:46;;;;;;;;;;;;;;;;;;137324;1274;22547;-82
2023/11/24 04:17:48;;;;;;;;;;;;;;;;;;137501;1274;22317;-81
2023/11/24 04:20:51;;;;;;;;;;;;;;;;;;137534;1274;22980;-81
2023/11/24 04:23:53;;;;;;;;;;;;;;;;;;137551;1274;22410;-82
2023/11/24 04:26:56;;;;;;;;;;;;;;;;;;137516;1274;22514;-83
2023/11/24 04:29:58;;;;;;;;;;;;;;;;;;137465;1274;22975;-82
2023/11/24 04:33:02;;;;;;;;;;;;;;;;;;137446;1274;22914;-81
2023/11/24 04:36:04;;;;;;;;;;;;;;;;;;137555;1274;22468;-82
2023/11/24 04:39:07;;;;;;;;;;;;;;;;;;137545;1274;22377;-82
2023/11/24 04:42:09;;;;;;;;;;;;;;;;;;137544;1274;22300;-81
2023/11/24 04:45:12;;;;;;;;;;;;;;;;;;137490;1274;22832;-81
2023/11/24 04:48:15;;;;;;;;;;;;;;;;;;137515;1274;22349;-84
2023/11/24 04:51:17;;;;;;;;;;;;;;;;;;137482;1274;22354;-82
2023/11/24 04:54:21;;;;;;;;;;;;;;;;;;137484;1274;22505;-81
2023/11/24 04:57:23;;;;;;;;;;;;;;;;;;137461;1273;22396;-81
2023/11/24 05:00:26;;;;;;;;;;;;;;;;;;137442;1274;22341;-81
2023/11/24 05:03:28;;;;;;;;;;;;;;;;;;137439;1274;22320;-81
2023/11/24 05:06:31;;;;;;;;;;;;;;;;;;137411;1274;22376;-81
2023/11/24 05:09:33;;;;;;;;;;;;;;;;;;137455;1274;22348;-81
2023/11/24 05:12:36;;;;;;;;;;;;;;;;;;137475;1269;22324;-81
2023/11/24 05:15:38;;;;;;;;;;;;;;;;;;137414;1274;22334;-81
2023/11/24 05:18:41;;;;;;;;;;;;;;;;;;137436;1274;22884;-79
2023/11/24 05:21:44;;;;;;;;;;;;;;;;;;137453;1259;22338;-80
2023/11/24 05:24:46;;;;;;;;;;;;;;;;;;137483;1274;22500;-82
2023/11/24 05:27:49;;;;;;;;;;;;;;;;;;137447;1269;22301;-81
2023/11/24 05:30:52;;;;;;;;;;;;;;;;;;137437;1274;22341;-80
2023/11/24 05:33:55;;;;;;;;;;;;;;;;;;137434;1274;22376;-79
2023/11/24 05:37:03;;;;;;;;;;;;;;;;;;137413;1274;22365;-80
2023/11/24 05:40:12;;;;;;;;;;;;;;;;;;137440;1274;22254;-81
2023/11/24 05:43:14;;;;;;;;;;;;;;;;;;137410;1274;22817;-80
2023/11/24 05:46:17;;;;;;;;;;;;;;;;;;137418;1274;22920;-79
2023/11/24 05:49:20;;;;;;;;;;;;;;;;;;137465;1273;22311;-78
2023/11/24 05:52:22;;;;;;;;;;;;;;;;;;137478;1273;22457;-79
2023/11/24 05:55:25;;;;;;;;;;;;;;;;;;137429;1273;22398;-79
2023/11/24 05:58:27;;;;;;;;;;;;;;;;;;137426;1273;22308;-77
2023/11/24 06:01:30;;;;;;;;;;;;;;;;;;137451;1273;22296;-78
2023/11/24 06:04:32;;;;;;;;;;;;;;;;;;137399;1273;22321;-78
2023/11/24 06:07:34;;;;;;;;;;;;;;;;;;137378;1274;22689;-77
2023/11/24 06:10:38;;;;;;;;;;;;;;;;;;137443;1273;22385;-78
2023/11/24 06:13:40;;;;;;;;;;;;;;;;;;137462;1274;22858;-79
2023/11/24 06:16:43;;;;;;;;;;;;;;;;;;137445;1274;22313;-79
2023/11/24 06:19:45;;;;;;;;;;;;;;;;;;137442;1274;22408;-79
2023/11/24 06:22:48;;;;;;;;;;;;;;;;;;137433;1274;22937;-78
2023/11/24 06:25:52;;;;;;;;;;;;;;;;;;137400;1274;22410;-78
2023/11/24 06:28:54;;;;;;;;;;;;;;;;;;137408;1274;22347;-78
2023/11/24 06:31:56;;;;;;;;;;;;;;;;;;137411;1274;22287;-78
2023/11/24 06:34:59;;;;;;;;;;;;;;;;;;137419;1262;22269;-78
2023/11/24 06:38:02;;;;;;;;;;;;;;;;;;137446;1274;22325;-79
2023/11/24 06:41:04;;;;;;;;;;;;;;;;;;137489;1274;22360;-76
2023/11/24 06:44:07;;;;;;;;;;;;;;;;;;137487;1262;22297;-76
2023/11/24 06:47:09;;;;;;;;;;;;;;;;;;137498;1274;22272;-77
2023/11/24 06:50:13;;;;;;;;;;;;;;;;;;137495;1274;22508;-77
2023/11/24 06:53:15;;;;;;;;;;;;;;;;;;137417;1273;22282;-77
2023/11/24 06:56:18;;;;;;;;;;;;;;;;;;137388;1274;22380;-78
2023/11/24 06:59:22;;;;;;;;;;;;;;;;;;137416;1274;22752;-79
2023/11/24 07:02:24;;;;;;;;;;;;;;;;;;137426;1274;22446;-79
2023/11/24 07:05:28;;;;;;;;;;;;;;;;;;137434;1274;22402;-78
2023/11/24 07:08:31;;;;;;;;;;;;;;;;;;137407;1274;22279;-77
2023/11/24 07:11:33;;;;;;;;;;;;;;;;;;137449;1274;22304;-80
2023/11/24 07:14:36;;;;;;;;;;;;;;;;;;137414;1274;22285;-78
2023/11/24 07:17:38;;;;;;;;;;;;;;;;;;137348;1274;22282;-78
2023/11/24 07:20:41;;;;;;;;;;;;;;;;;;137358;1273;22278;-79
2023/11/24 07:23:43;;;;;;;;;;;;;;;;;;137363;1274;23280;-77
2023/11/24 07:26:46;;;;;;;;;;;;;;;;;;137389;1274;22332;-75
2023/11/24 07:29:48;;;;;;;;;;;;;;;;;;137400;1274;22287;-78
2023/11/24 07:32:51;;;;;;;;;;;;;;;;;;137411;1274;22358;-78
2023/11/24 07:35:53;;;;;;;;;;;;;;;;;;137344;1274;22389;-79
2023/11/24 07:38:56;;;;;;;;;;;;;;;;;;137400;1274;22995;-78
2023/11/24 07:41:59;;;;;;;;;;;;;;;;;;137368;1262;22294;-78
2023/11/24 07:45:01;;;;;;;;;;;;;;;;;;137382;1274;22279;-77
2023/11/24 07:48:04;;;;;;;;;;;;;;;;;;137368;1274;22369;-78
2023/11/24 07:51:06;;;;;;;;;;;;;;;;;;137357;1274;22346;-78
2023/11/24 07:54:09;;;;;;;;;;;;;;;;;;137353;1274;23329;-77
2023/11/24 07:57:12;;;;;;;;;;;;;;;;;;137371;1274;22276;-78
2023/11/24 08:00:14;;;;;;;;;;;;;;;;;;137371;1274;22858;-78
2023/11/24 08:03:18;;;;;;;;;;;;;;;;;;137356;1274;22361;-79
2023/11/24 08:06:20;;;;;;;;;;;;;;;;;;137338;1274;22320;-76
2023/11/24 08:09:25;;;;;;;;;;;;;;;;;;137338;1274;22363;-78
2023/11/24 08:12:28;;;;;;;;;;;;;;;;;;137408;1274;22296;-78
2023/11/24 08:15:30;;;;;;;;;;;;;;;;;;137386;1274;22266;-77
2023/11/24 08:18:35;;;;;;;;;;;;;;;;;;137377;1273;22305;-79
2023/11/24 08:21:38;;;;;;;;;;;;;;;;;;137392;1274;22832;-78
2023/11/24 08:24:42;;;;;;;;;;;;;;;;;;137248;1274;22436;-77
2023/11/24 08:27:46;;;;;;;;;;;;;;;;;;137386;1274;22327;-77
2023/11/24 08:30:49;;;;;;;;;;;;;;;;;;137363;1274;22272;-77
2023/11/24 08:33:51;;;;;;;;;;;;;;;;;;137412;1274;22331;-76
2023/11/24 08:36:54;;;;;;;;;;;;;;;;;;137362;1273;22335;-78
2023/11/24 08:39:56;;;;;;;;;;;;;;;;;;137354;1274;22281;-77
2023/11/24 08:42:59;;;;;;;;;;;;;;;;;;137364;1274;22384;-77
2023/11/24 08:46:01;;;;;;;;;;;;;;;;;;137423;1274;22338;-76
2023/11/24 08:49:05;;;;;;;;;;;;;;;;;;137385;1274;22356;-76
2023/11/24 08:52:09;;;;;;;;;;;;;;;;;;137419;1274;22300;-77
2023/11/24 08:55:11;;;;;;;;;;;;;;;;;;137446;1274;22395;-78
2023/11/24 08:58:14;;;;;;;;;;;;;;;;;;137477;1274;22372;-78
2023/11/24 09:01:17;;;;;;;;;;;;;;;;;;137416;1274;22426;-78
2023/11/24 09:04:20;;;;;;;;;;;;;;;;;;137424;1274;22322;-78
2023/11/24 09:07:22;;;;;;;;;;;;;;;;;;137410;1274;22782;-78
2023/11/24 09:10:25;;;;;;;;;;;;;;;;;;137424;1274;22343;-78
2023/11/24 09:13:27;;;;;;;;;;;;;;;;;;137390;1274;22308;-77
2023/11/24 09:16:30;;;;;;;;;;;;;;;;;;137424;1274;22360;-76
2023/11/24 09:19:33;;;;;;;;;;;;;;;;;;137594;1274;22441;-76
2023/11/24 09:22:36;;;;;;;;;;;;;;;;;;137558;1274;23008;-76
2023/11/24 09:25:38;;;;;;;;;;;;;;;;;;137363;1274;22440;-76
2023/11/24 09:28:41;;;;;;;;;;;;;;;;;;137299;1275;23228;-77
2023/11/24 09:31:45;;;;;;;;;;;;;;;;;;137264;1275;22327;-76
2023/11/24 09:34:48;;;;;;;;;;;;;;;;;;137310;1275;22394;-77
2023/11/24 09:37:52;;;;;;;;;;;;;;;;;;137296;1275;23105;-76
2023/11/24 09:41:07;;;;;;;;;;;;;;;;;;;;;
2023/11/24 09:44:09;;;;;;;;;;;;;;;;;;137312;1275;22336;-78
2023/11/24 09:47:12;;;;;;;;;;;;;;;;;;137289;1275;22433;-76
2023/11/24 09:50:14;;;;;;;;;;;;;;;;;;137272;1265;22278;-78
2023/11/24 09:53:17;;;;;;;;;;;;;;;;;;137249;1275;22441;-78
2023/11/24 09:56:19;;;;;;;;;;;;;;;;;;137256;1275;22337;-78
2023/11/24 09:59:22;;;;;;;;;;;;;;;;;;137246;1275;22877;-78
2023/11/24 10:02:25;;;;;;;;;;;;;;;;;;137263;1274;22329;-77
2023/11/24 10:05:29;;;;;;;;;;;;;;;;;;137252;1275;22358;-78
2023/11/24 10:08:31;;;;;;;;;;;;;;;;;;137258;1275;22274;-78
2023/11/24 10:11:38;;;;;;;;;;;;;;;;;;137294;1275;22394;-77
2023/11/24 10:14:43;;;;;;;;;;;;;;;;;;137337;1275;23146;-77
2023/11/24 10:17:45;;;;;;;;;;;;;;;;;;137382;1275;22337;-77
2023/11/24 10:20:49;;;;;;;;;;;;;;;;;;137301;1275;22339;-77
2023/11/24 10:23:52;;;;;;;;;;;;;;;;;;137373;1274;22476;-77
2023/11/24 10:26:54;;;;;;;;;;;;;;;;;;137415;1274;22332;-77
2023/11/24 10:29:56;;;;;;;;;;;;;;;;;;137383;1274;22422;-77
2023/11/24 10:32:59;;;;;;;;;;;;;;;;;;137384;1274;22805;-77
2023/11/24 10:36:02;;;;;;;;;;;;;;;;;;137349;1274;22352;-78
2023/11/24 10:39:06;;;;;;;;;;;;;;;;;;137355;1274;23138;-78
2023/11/24 10:42:09;;;;;;;;;;;;;;;;;;137388;1271;22316;-78
2023/11/24 10:45:12;;;;;;;;;;;;;;;;;;137355;1274;22347;-78
2023/11/24 10:48:17;;;;;;;;;;;;;;;;;;137382;1274;22389;-78
2023/11/24 10:51:19;;;;;;;;;;;;;;;;;;137357;1274;22468;-77
2023/11/24 10:54:22;;;;;;;;;;;;;;;;;;137354;1274;22391;-77
2023/11/24 10:57:25;;;;;;;;;;;;;;;;;;137420;1274;22805;-77
2023/11/24 11:00:28;;;;;;;;;;;;;;;;;;137415;1274;22342;-77
2023/11/24 11:03:30;;;;;;;;;;;;;;;;;;137401;1274;22387;-77
2023/11/24 11:06:33;;;;;;;;;;;;;;;;;;137378;1274;22424;-76
2023/11/24 11:09:47;;;;;;;;;;;;;;;;;;137409;1274;22345;-78
2023/11/24 11:12:51;;;;;;;;;;;;;;;;;;137351;1274;23321;-77
2023/11/24 11:15:53;;;;;;;;;;;;;;;;;;137323;1274;22463;-77
2023/11/24 11:18:57;;;;;;;;;;;;;;;;;;137376;1269;22404;-77
2023/11/24 11:22:01;;;;;;;;;;;;;;;;;;137391;1274;22323;-77
2023/11/24 11:25:04;;;;;;;;;;;;;;;;;;137401;1274;22412;-78
2023/11/24 11:28:07;;;;;;;;;;;;;;;;;;137389;1274;22368;-77
2023/11/24 11:31:09;;;;;;;;;;;;;;;;;;137338;1274;22341;-78
2023/11/24 11:34:13;;;;;;;;;;;;;;;;;;137336;1274;22333;-76
2023/11/24 11:37:17;;;;;;;;;;;;;;;;;;137356;1274;22846;-78
2023/11/24 11:40:19;;;;;;;;;;;;;;;;;;137364;1274;22346;-76
2023/11/24 11:43:22;;;;;;;;;;;;;;;;;;137401;1274;22310;-78
2023/11/24 11:46:25;;;;;;;;;;;;;;;;;;137366;1274;22726;-77
2023/11/24 11:49:30;;;;;;;;;;;;;;;;;;137351;1274;22708;-77
2023/11/24 11:52:35;;;;;;;;;;;;;;;;;;137359;1274;22768;-78
2023/11/24 11:55:40;;;;;;;;;;;;;;;;;;137307;1274;22868;-77
2023/11/24 11:58:45;;;;;;;;;;;;;;;;;;137360;1274;23081;-77
2023/11/24 12:01:47;;;;;;;;;;;;;;;;;;137337;1274;22410;-78
2023/11/24 12:04:50;;;;;;;;;;;;;;;;;;137367;1274;23150;-77
2023/11/24 12:07:53;;;;;;;;;;;;;;;;;;137341;1274;22280;-77
2023/11/24 12:10:55;;;;;;;;;;;;;;;;;;137396;1274;22749;-79
2023/11/24 12:14:00;;;;;;;;;;;;;;;;;;137366;1274;22334;-78
2023/11/24 12:17:05;;;;;;;;;;;;;;;;;;137337;1274;22380;-78
2023/11/24 12:20:10;;;;;;;;;;;;;;;;;;137324;1263;22354;-75
2023/11/24 12:23:13;;;;;;;;;;;;;;;;;;137295;1274;22294;-77
2023/11/24 12:26:16;;;;;;;;;;;;;;;;;;137244;1274;22850;-78
2023/11/24 12:29:18;;;;;;;;;;;;;;;;;;137333;1274;22961;-77
2023/11/24 12:32:21;;;;;;;;;;;;;;;;;;137307;1274;22271;-78
2023/11/24 12:35:26;;;;;;;;;;;;;;;;;;137341;1274;22273;-77
2023/11/24 12:38:29;;;;;;;;;;;;;;;;;;137305;1274;22354;-78
2023/11/24 12:41:32;;;;;;;;;;;;;;;;;;137361;1256;22293;-78
2023/11/24 12:44:36;;;;;;;;;;;;;;;;;;137352;1274;23008;-77
2023/11/24 12:47:39;;;;;;;;;;;;;;;;;;137391;1262;22289;-77
2023/11/24 12:50:41;;;;;;;;;;;;;;;;;;137380;1274;22396;-77
2023/11/24 12:53:44;;;;;;;;;;;;;;;;;;137377;1268;22405;-78
2023/11/24 12:56:47;;;;;;;;;;;;;;;;;;137417;1274;22272;-77
2023/11/24 13:00:09;;;;;;;;;;;;;;;;;;137414;1274;22337;-76
2023/11/24 13:03:12;;;;;;;;;;;;;;;;;;137443;1274;22823;-78
2023/11/24 13:06:15;;;;;;;;;;;;;;;;;;137385;1274;22344;-78
2023/11/24 13:09:18;;;;;;;;;;;;;;;;;;137292;1274;22269;-76
2023/11/24 13:12:21;;;;;;;;;;;;;;;;;;137267;1274;23090;-76
2023/11/24 13:15:24;;;;;;;;;;;;;;;;;;137272;1274;22685;-76
2023/11/24 13:18:27;;;;;;;;;;;;;;;;;;137264;1274;22321;-78
2023/11/24 13:21:32;;;;;;;;;;;;;;;;;;137285;1274;22325;-77
2023/11/24 13:24:35;;;;;;;;;;;;;;;;;;137178;1274;23053;-77
2023/11/24 13:27:38;;;;;;;;;;;;;;;;;;137170;1275;22349;-78
2023/11/24 13:30:40;;;;;;;;;;;;;;;;;;137207;1275;22372;-76
2023/11/24 13:33:43;;;;;;;;;;;;;;;;;;137234;1275;22363;-77
2023/11/24 13:36:46;;;;;;;;;;;;;;;;;;137232;1265;22264;-77
2023/11/24 13:39:49;;;;;;;;;;;;;;;;;;137267;1275;22403;-78
2023/11/24 13:42:51;;;;;;;;;;;;;;;;;;137349;1275;22319;-77
2023/11/24 13:45:54;;;;;;;;;;;;;;;;;;137334;1275;22264;-78
2023/11/24 13:48:56;;;;;;;;;;;;;;;;;;137326;1275;22257;-76
2023/11/24 13:51:59;;;;;;;;;;;;;;;;;;137338;1275;22907;-78
2023/11/24 13:55:01;;;;;;;;;;;;;;;;;;137303;1275;22380;-78
2023/11/24 13:58:04;;;;;;;;;;;;;;;;;;137344;1275;22295;-78
2023/11/24 14:01:07;;;;;;;;;;;;;;;;;;137239;1275;22281;-77
2023/11/24 14:04:10;;;;;;;;;;;;;;;;;;137331;1275;22259;-77
2023/11/24 14:07:14;;;;;;;;;;;;;;;;;;137225;1275;22270;-76
2023/11/24 14:10:16;;;;;;;;;;;;;;;;;;137251;1275;22353;-77
2023/11/24 14:13:19;;;;;;;;;;;;;;;;;;137227;1275;22311;-77
2023/11/24 14:16:23;;;;;;;;;;;;;;;;;;137219;1275;22319;-77
2023/11/24 14:19:26;;;;;;;;;;;;;;;;;;137265;1275;22182;-77
2023/11/24 14:22:31;;;;;;;;;;;;;;;;;;137250;1275;22256;-78
2023/11/24 14:25:34;;;;;;;;;;;;;;;;;;137335;1274;22448;-77
2023/11/24 14:28:36;;;;;;;;;;;;;;;;;;137347;1274;22303;-77
2023/11/24 14:31:38;;;;;;;;;;;;;;;;;;137339;1274;22417;-77
2023/11/24 14:34:42;;;;;;;;;;;;;;;;;;137375;1274;22342;-77
2023/11/24 14:37:45;;;;;;;;;;;;;;;;;;137387;1274;22764;-76
2023/11/24 14:40:49;;;;;;;;;;;;;;;;;;137437;1274;22310;-77
2023/11/24 14:43:53;;;;;;;;;;;;;;;;;;137476;1274;22318;-80
2023/11/24 14:46:58;;;;;;;;;;;;;;;;;;137488;1274;22304;-77
2023/11/24 14:50:04;;;;;;;;;;;;;;;;;;137492;1274;22328;-75
2023/11/24 14:53:08;;;;;;;;;;;;;;;;;;137449;1274;22633;-77
2023/11/24 14:56:13;;;;;;;;;;;;;;;;;;137458;1270;22803;-80
2023/11/24 14:59:16;;;;;;;;;;;;;;;;;;137441;1274;22310;-76
2023/11/24 15:02:19;;;;;;;;;;;;;;;;;;137452;1274;22274;-77
2023/11/24 15:05:23;;;;;;;;;;;;;;;;;;137478;1274;22305;-83
2023/11/24 15:08:26;;;;;;;;;;;;;;;;;;137453;1274;22602;-82
2023/11/24 15:11:37;;;;;;;;;;;;;;;;;;137502;1270;22206;-80
2023/11/24 15:14:42;;;;;;;;;;;;;;;;;;137534;1274;22184;-80
2023/11/24 15:17:45;;;;;;;;;;;;;;;;;;137560;1270;22697;-81
2023/11/24 15:20:48;;;;;;;;;;;;;;;;;;137538;1274;22852;-80
2023/11/24 15:23:50;;;;;;;;;;;;;;;;;;137501;1272;22442;-81
2023/11/24 15:26:53;;;;;;;;;;;;;;;;;;137489;1275;22182;-80
2023/11/24 15:29:55;;;;;;;;;;;;;;;;;;137548;1275;22182;-81
2023/11/24 15:32:58;;;;;;;;;;;;;;;;;;137521;1275;22173;-81
2023/11/24 15:36:02;;;;;;;;;;;;;;;;;;137450;1275;22273;-81
2023/11/24 15:39:11;;;;;;;;;;;;;;;;;;137497;1275;22631;-81
2023/11/24 15:42:16;;;;;;;;;;;;;;;;;;137351;1275;22353;-77
2023/11/24 15:45:19;;;;;;;;;;;;;;;;;;137486;1275;22579;-84
2023/11/24 15:48:22;;;;;;;;;;;;;;;;;;137385;1275;22268;-84
2023/11/24 15:51:25;;;;;;;;;;;;;;;;;;137409;1275;22304;-83
2023/11/24 15:54:29;;;;;;;;;;;;;;;;;;137414;1275;22437;-84
2023/11/24 15:57:31;;;;;;;;;;;;;;;;;;137415;1275;22287;-86
2023/11/24 16:00:34;;;;;;;;;;;;;;;;;;137411;1275;22193;-84
2023/11/24 16:03:36;;;;;;;;;;;;;;;;;;137454;1275;22269;-84
2023/11/24 16:06:41;;;;;;;;;;;;;;;;;;137414;1275;22263;-81
2023/11/24 16:09:43;;;;;;;;;;;;;;;;;;137422;1275;22266;-85
2023/11/24 16:12:48;;;;;;;;;;;;;;;;;;137454;1275;22268;-85
2023/11/24 16:15:51;;;;;;;;;;;;;;;;;;137468;1275;22587;-84
2023/11/24 16:18:53;;;;;;;;;;;;;;;;;;137442;1275;22264;-84
2023/11/24 16:21:56;;;;;;;;;;;;;;;;;;137486;1275;22253;-82
2023/11/24 16:24:59;;;;;;;;;;;;;;;;;;137512;1274;22458;-84
2023/11/24 16:28:03;;;;;;;;;;;;;;;;;;137500;1274;22206;-83
2023/11/24 16:31:05;;;;;;;;;;;;;;;;;;137506;1274;22153;-83
2023/11/24 16:34:08;;;;;;;;;;;;;;;;;;137485;1274;22271;-83
2023/11/24 16:37:10;;;;;;;;;;;;;;;;;;137498;1274;22182;-84
2023/11/24 16:40:14;;;;;;;;;;;;;;;;;;137475;1273;22276;-86
2023/11/24 16:43:17;;;;;;;;;;;;;;;;;;137573;1274;22294;-84
2023/11/24 16:46:21;;;;;;;;;;;;;;;;;;137534;1274;22317;-84
2023/11/24 16:49:23;;;;;;;;;;;;;;;;;;137504;1274;22189;-82
2023/11/24 16:52:26;;;;;;;;;;;;;;;;;;137519;1274;22767;-83
2023/11/24 16:55:29;;;;;;;;;;;;;;;;;;137518;1274;22389;-83
2023/11/24 16:58:33;;;;;;;;;;;;;;;;;;137547;1274;22145;-85
2023/11/24 17:01:36;;;;;;;;;;;;;;;;;;137565;1274;22278;-82
2023/11/24 17:04:38;;;;;;;;;;;;;;;;;;137528;1274;22835;-82
2023/11/24 17:07:41;;;;;;;;;;;;;;;;;;137492;1274;22885;-84
2023/11/24 17:10:45;;;;;;;;;;;;;;;;;;137473;1274;22275;-84
2023/11/24 17:13:47;;;;;;;;;;;;;;;;;;137483;1274;22677;-84
2023/11/24 17:16:50;;;;;;;;;;;;;;;;;;137524;1274;22267;-84
2023/11/24 17:19:52;;;;;;;;;;;;;;;;;;137535;1274;22304;-83
2023/11/24 17:22:54;;;;;;;;;;;;;;;;;;137533;1274;22302;-84
2023/11/24 17:25:57;;;;;;;;;;;;;;;;;;137450;1274;22482;-84
2023/11/24 17:29:02;;;;;;;;;;;;;;;;;;137506;1274;22286;-82
2023/11/24 17:32:04;;;;;;;;;;;;;;;;;;137564;1274;22265;-83
2023/11/24 17:35:12;;;;;;;;;;;;;;;;;;137585;1270;22219;-83
2023/11/24 17:38:15;;;;;;;;;;;;;;;;;;137534;1274;22373;-85
2023/11/24 17:41:17;;;;;;;;;;;;;;;;;;137538;1274;22262;-84
2023/11/24 17:44:20;;;;;;;;;;;;;;;;;;137575;1273;22245;-84
2023/11/24 17:47:25;;;;;;;;;;;;;;;;;;137548;1274;22313;-84
2023/11/24 17:50:28;;;;;;;;;;;;;;;;;;137587;1274;22284;-85
2023/11/24 17:53:31;;;;;;;;;;;;;;;;;;137592;1274;22390;-84
2023/11/24 17:56:33;;;;;;;;;;;;;;;;;;137610;1273;22360;-83
2023/11/24 17:59:36;;;;;;;;;;;;;;;;;;137596;1274;22286;-83
2023/11/24 18:02:38;;;;;;;;;;;;;;;;;;137682;1274;22270;-82
2023/11/24 18:05:41;;;;;;;;;;;;;;;;;;137574;1274;22330;-83
2023/11/24 18:08:44;;;;;;;;;;;;;;;;;;137529;1274;22370;-83
2023/11/24 18:11:48;;;;;;;;;;;;;;;;;;137536;1274;22196;-83
2023/11/24 18:14:51;;;;;;;;;;;;;;;;;;137518;1274;22756;-84
2023/11/24 18:17:53;;;;;;;;;;;;;;;;;;137486;1274;22382;-84
2023/11/24 18:20:56;;;;;;;;;;;;;;;;;;137502;1274;22305;-81
2023/11/24 18:23:58;;;;;;;;;;;;;;;;;;137492;1274;22497;-83
2023/11/24 18:27:01;;;;;;;;;;;;;;;;;;137493;1267;22590;-83
2023/11/24 18:30:04;;;;;;;;;;;;;;;;;;137486;1262;22251;-83
2023/11/24 18:33:08;;;;;;;;;;;;;;;;;;137518;1267;22348;-80
2023/11/24 18:36:11;;;;;;;;;;;;;;;;;;137506;1274;22245;-79
2023/11/24 18:39:13;;;;;;;;;;;;;;;;;;137496;1274;22271;-80
2023/11/24 18:42:16;;;;;;;;;;;;;;;;;;137563;1274;22207;-79
2023/11/24 18:45:19;;;;;;;;;;;;;;;;;;137556;1274;22696;-80
2023/11/24 18:48:22;;;;;;;;;;;;;;;;;;137571;1274;22282;-80
2023/11/24 18:51:24;;;;;;;;;;;;;;;;;;137561;1274;22785;-80
2023/11/24 18:54:28;;;;;;;;;;;;;;;;;;137502;1274;22357;-80
2023/11/24 18:57:31;;;;;;;;;;;;;;;;;;137545;1274;22662;-81
2023/11/24 19:00:33;;;;;;;;;;;;;;;;;;137568;1274;22765;-81
2023/11/24 19:03:36;;;;;;;;;;;;;;;;;;137554;1274;22162;-80
2023/11/24 19:06:39;;;;;;;;;;;;;;;;;;137569;1274;22761;-79
2023/11/24 19:09:43;;;;;;;;;;;;;;;;;;137577;1267;22332;-80
2023/11/24 19:12:48;;;;;;;;;;;;;;;;;;137590;1274;22187;-79
2023/11/24 19:15:51;;;;;;;;;;;;;;;;;;137529;1274;22196;-80
2023/11/24 19:18:53;;;;;;;;;;;;;;;;;;137545;1273;22256;-81
2023/11/24 19:21:56;;;;;;;;;;;;;;;;;;137535;1274;22523;-78
2023/11/24 19:24:58;;;;;;;;;;;;;;;;;;137500;1274;22409;-81
2023/11/24 19:28:00;;;;;;;;;;;;;;;;;;137381;1275;22290;-78
2023/11/24 19:31:03;;;;;;;;;;;;;;;;;;137520;1275;22629;-78
2023/11/24 19:34:07;;;;;;;;;;;;;;;;;;137507;1275;22292;-80
2023/11/24 19:37:09;;;;;;;;;;;;;;;;;;137588;1275;22390;-80
2023/11/24 19:40:12;;;;;;;;;;;;;;;;;;137527;1275;22407;-80
2023/11/24 19:43:14;;;;;;;;;;;;;;;;;;137517;1275;22209;-79
2023/11/24 19:46:18;;;;;;;;;;;;;;;;;;137497;1275;22757;-79
2023/11/24 19:49:21;;;;;;;;;;;;;;;;;;137523;1275;22700;-79
2023/11/24 19:52:23;;;;;;;;;;;;;;;;;;137493;1275;22348;-79
2023/11/24 19:55:26;;;;;;;;;;;;;;;;;;137446;1275;23252;-79
2023/11/24 19:58:28;;;;;;;;;;;;;;;;;;137515;1275;22279;-79
2023/11/24 20:01:33;;;;;;;;;;;;;;;;;;137474;1275;22184;-79
2023/11/24 20:04:36;;;;;;;;;;;;;;;;;;137477;1275;22384;-79
2023/11/24 20:07:39;;;;;;;;;;;;;;;;;;137490;1275;22326;-80
2023/11/24 20:10:41;;;;;;;;;;;;;;;;;;137512;1275;22283;-81
2023/11/24 20:13:43;;;;;;;;;;;;;;;;;;137486;1275;22241;-79
2023/11/24 20:16:47;;;;;;;;;;;;;;;;;;137517;1275;22347;-80
2023/11/24 20:19:49;;;;;;;;;;;;;;;;;;137482;1275;22359;-80
2023/11/24 20:22:52;;;;;;;;;;;;;;;;;;137529;1267;22268;-81
2023/11/24 20:25:55;;;;;;;;;;;;;;;;;;137473;1275;22431;-80
2023/11/24 20:28:58;;;;;;;;;;;;;;;;;;137510;1275;22352;-80